Airfield :
LOGIN :

Register | Disclaimer

   EN    FR    IT 

 










Legend :    VFR   Marginal VFR   IFR   Intensive IFR   Very Intensive IFR
Visi :
Ceiling :
>= 8 km
>= 3000ft
5 to 8 km
1000 to 3000 ft
1500m to 5 km
500 to 1000 ft
800 to 1500m
200 to 500 ft
< 800m
< 200 ft
Symbols :   Thunderstorms  Fog  Heavy snow  Heavy precipitations  Wind > 20 kt
SIGMETs :     Misc.  Thunderstorms  Icing  Turbulence  Mountain Waves  Volcanic Ashes






- Airport Elevation : 327 ft
- IATA code : BHX


EGBB - Birmingham

CURRENT METAR :
  • 050020Z AUTO 14007KT 9999 NCD 05/M00 Q1017

EXPIRED METARs :
  • 042350Z AUTO 14006KT 9999 NCD 05/00 Q1017
  • 042320Z AUTO 14004KT 9999 NCD 06/00 Q1018
  • 042250Z AUTO 15006KT 9999 NCD 06/01 Q1018
  • 042220Z AUTO 14006KT 9999 NCD 06/01 Q1018
  • 042150Z 15005KT CAVOK 06/01 Q1018

TAF TAF EGBB
Valid from the 05 at 00:00 until the 06 at 00:00 UTC


042255Z 0500/0524 14010KT CAVOK
PROB30
TEMPO 0500/0509 15015G25KT
BECMG 0510/0513 16018G28KT
BECMG 0518/0521 16010KT
PROB40
TEMPO 0522/0524 BKN040
ATIS : +44 121 780 0910



MET'MAP, your aeronautical weather chart ! - Copyright ORBIFLY December 2007 - Disclaimer

ORBIFLY MET'MAP TEAM :

Programming & Development : Alexandra Zaïnal
Concept & original design : Baudouin d'Aumeries
Assistance for programming : Marc-Olivier Méhu
Technical & hardware support : Manuel Goepfert

Contact : metmap@orbifly.com




SOURCES & CREDITS :

   NOAA